createdAt,value
2022-08-16T00:00:03.653Z,10.30
2022-08-16T00:02:11.957Z,11.30
2022-08-16T00:04:16.789Z,10.40
2022-08-16T00:06:20.837Z,10.87
2022-08-16T00:08:36.253Z,10.30
2022-08-16T00:10:39.964Z,11.07
2022-08-16T00:12:44.274Z,10.63
2022-08-16T00:14:47.045Z,11.43
2022-08-16T00:17:06.334Z,11.23
2022-08-16T00:19:15.893Z,11.90
2022-08-16T00:21:18.686Z,12.87
2022-08-16T00:23:24.567Z,11.10
2022-08-16T00:26:35.391Z,12.68
2022-08-16T00:28:00.430Z,11.50
2022-08-16T00:30:09.250Z,10.10
2022-08-16T00:32:22.479Z,9.17
2022-08-16T00:34:43.973Z,10.40
2022-08-16T00:36:49.366Z,10.50
2022-08-16T00:38:58.794Z,9.40
2022-08-16T00:41:06.090Z,9.33
2022-08-16T00:43:19.071Z,10.53
2022-08-16T00:45:57.999Z,10.82
2022-08-16T00:48:30.651Z,10.60
2022-08-16T00:50:36.573Z,10.30
2022-08-16T00:52:50.139Z,8.40
2022-08-16T00:54:53.470Z,10.50
2022-08-16T00:57:00.346Z,9.60
2022-08-16T00:59:05.711Z,9.57
2022-08-16T01:01:10.375Z,9.38
2022-08-16T01:03:17.408Z,9.60
2022-08-16T01:05:33.917Z,9.98
2022-08-16T01:07:50.427Z,8.40
2022-08-16T01:09:54.910Z,8.80
2022-08-16T01:11:57.483Z,7.67
2022-08-16T01:14:26.717Z,8.90
2022-08-16T01:16:35.113Z,9.10
2022-08-16T01:18:55.471Z,8.80
2022-08-16T01:21:33.707Z,9.13
2022-08-16T01:24:52.831Z,10.83
2022-08-16T01:26:44.995Z,10.10
2022-08-16T01:28:48.869Z,8.37
2022-08-16T01:30:57.825Z,10.73
2022-08-16T01:33:15.105Z,10.93
2022-08-16T01:35:30.721Z,10.97
2022-08-16T01:37:43.161Z,10.93
2022-08-16T01:39:47.316Z,9.87
2022-08-16T01:41:50.224Z,10.80
2022-08-16T01:43:54.657Z,12.43
2022-08-16T01:46:37.816Z,11.27
2022-08-16T01:48:31.896Z,10.60
2022-08-16T01:50:41.731Z,12.07
2022-08-16T01:52:47.523Z,12.63
2022-08-16T01:54:57.001Z,12.43
2022-08-16T01:57:02.346Z,13.43
2022-08-16T01:59:15.704Z,13.27
2022-08-16T02:01:28.124Z,12.57
2022-08-16T02:03:31.162Z,16.83
2022-08-16T02:05:34.863Z,17.40
2022-08-16T02:07:44.164Z,15.23
2022-08-16T02:09:57.191Z,14.00
2022-08-16T02:12:49.541Z,12.03
2022-08-16T02:14:32.612Z,13.47
2022-08-16T02:16:35.996Z,12.83
2022-08-16T02:18:38.962Z,12.80
2022-08-16T02:20:48.166Z,12.80
2022-08-16T02:22:51.372Z,10.93
2022-08-16T02:24:57.843Z,10.73
2022-08-16T02:27:00.577Z,10.70
2022-08-16T02:29:03.990Z,12.70
2022-08-16T02:31:11.262Z,12.20
2022-08-16T02:33:15.426Z,18.10
2022-08-16T02:35:23.190Z,17.93
2022-08-16T02:37:51.532Z,14.30
2022-08-16T02:39:54.062Z,14.40
2022-08-16T02:41:57.136Z,12.20
2022-08-16T02:44:00.518Z,11.87
2022-08-16T02:46:07.340Z,11.20
2022-08-16T02:48:29.370Z,11.90
2022-08-16T02:51:04.230Z,14.82
2022-08-16T02:52:57.420Z,15.07
2022-08-16T02:55:00.853Z,17.43
2022-08-16T02:57:04.552Z,16.17
2022-08-16T02:59:11.447Z,15.00
2022-08-16T03:01:25.271Z,14.75
2022-08-16T03:04:29.868Z,14.63
2022-08-16T03:06:03.267Z,12.70
2022-08-16T03:08:50.304Z,13.53
2022-08-16T03:10:53.250Z,11.57
2022-08-16T03:12:56.846Z,15.23
2022-08-16T03:15:06.265Z,15.13
2022-08-16T03:17:11.217Z,16.83
2022-08-16T03:19:15.516Z,22.97
2022-08-16T03:21:21.198Z,19.67
2022-08-16T03:23:27.618Z,16.37
2022-08-16T03:25:43.967Z,16.52
2022-08-16T03:27:48.265Z,16.90
2022-08-16T03:29:54.624Z,16.37
2022-08-16T03:32:01.505Z,17.27
2022-08-16T03:34:04.785Z,13.53
2022-08-16T03:36:29.711Z,15.40
2022-08-16T03:38:35.730Z,13.90
2022-08-16T03:40:43.434Z,11.53
2022-08-16T03:43:18.663Z,14.57
2022-08-16T03:45:10.001Z,10.77
2022-08-16T03:47:18.665Z,11.93
2022-08-16T03:49:23.662Z,11.98
2022-08-16T03:51:42.309Z,11.60
2022-08-16T03:54:01.026Z,12.17
2022-08-16T03:56:07.910Z,11.73
2022-08-16T03:58:10.794Z,13.47
2022-08-16T04:00:40.253Z,16.00
2022-08-16T04:02:48.574Z,17.80
2022-08-16T04:04:56.556Z,16.60
2022-08-16T04:07:02.672Z,16.33
2022-08-16T04:09:06.296Z,18.10
2022-08-16T04:11:16.405Z,17.60
2022-08-16T04:14:01.222Z,18.10
2022-08-16T04:15:44.649Z,19.30
2022-08-16T04:17:58.258Z,24.70
2022-08-16T04:20:01.498Z,24.60
2022-08-16T04:22:08.483Z,23.63
2022-08-16T04:24:20.005Z,21.77
2022-08-16T04:26:22.768Z,20.07
2022-08-16T04:28:51.653Z,17.77
2022-08-16T04:30:50.548Z,14.90
2022-08-16T04:32:55.619Z,14.53
2022-08-16T04:35:03.435Z,14.57
2022-08-16T04:37:09.894Z,12.70
2022-08-16T04:39:17.428Z,12.73
2022-08-16T04:41:32.688Z,11.63
2022-08-16T04:43:39.070Z,10.60
2022-08-16T04:45:48.032Z,10.30
2022-08-16T04:48:04.568Z,10.83
2022-08-16T04:50:19.429Z,10.57
2022-08-16T04:52:48.676Z,8.93
2022-08-16T04:54:52.868Z,8.27
2022-08-16T04:56:55.770Z,9.07
2022-08-16T04:59:00.773Z,9.67
2022-08-16T05:01:07.843Z,11.50
2022-08-16T05:03:12.707Z,8.90
2022-08-16T05:05:22.246Z,9.47
2022-08-16T05:07:25.444Z,11.20
2022-08-16T05:09:38.381Z,11.07
2022-08-16T05:12:10.999Z,10.93
2022-08-16T05:14:20.286Z,9.70
2022-08-16T05:16:39.236Z,9.00
2022-08-16T05:19:02.325Z,10.00
2022-08-16T05:21:12.498Z,11.43
2022-08-16T05:23:18.855Z,8.83
2022-08-16T05:25:23.984Z,7.47
2022-08-16T05:27:44.179Z,9.13
2022-08-16T05:29:59.284Z,8.03
2022-08-16T05:32:32.441Z,9.53
2022-08-16T05:34:31.266Z,10.50
2022-08-16T05:36:37.046Z,10.40
2022-08-16T05:38:41.366Z,14.20
2022-08-16T05:41:00.056Z,11.83
2022-08-16T05:43:12.163Z,12.50
2022-08-16T05:45:21.915Z,13.13
2022-08-16T05:47:30.213Z,11.33
2022-08-16T05:49:40.294Z,11.93
2022-08-16T05:51:47.334Z,15.43
2022-08-16T05:53:53.551Z,20.47
2022-08-16T05:55:57.930Z,14.60
2022-08-16T05:58:02.168Z,15.27
2022-08-16T06:00:10.303Z,14.40
2022-08-16T06:02:17.092Z,11.77
2022-08-16T06:04:34.904Z,11.97
2022-08-16T06:06:43.509Z,12.63
2022-08-16T06:09:00.720Z,16.17
2022-08-16T06:11:10.124Z,15.40
2022-08-16T06:13:13.506Z,15.53
2022-08-16T06:15:21.379Z,15.33
2022-08-16T06:17:24.776Z,13.23
2022-08-16T06:19:48.402Z,13.13
2022-08-16T06:21:55.221Z,16.83
2022-08-16T06:24:01.235Z,13.43
2022-08-16T06:26:07.997Z,11.63
2022-08-16T06:28:17.242Z,16.07
2022-08-16T06:30:43.383Z,14.30
2022-08-16T06:32:48.558Z,19.70
2022-08-16T06:34:56.841Z,12.90
2022-08-16T06:37:07.515Z,12.00
2022-08-16T06:39:12.471Z,9.30
2022-08-16T06:41:27.528Z,11.17
2022-08-16T06:43:32.394Z,11.33
2022-08-16T06:45:43.378Z,10.77
2022-08-16T06:47:54.278Z,10.10
2022-08-16T06:50:02.918Z,10.20
2022-08-16T06:52:57.210Z,11.07
2022-08-16T06:54:49.821Z,11.00
2022-08-16T06:56:54.202Z,15.60
2022-08-16T06:58:58.495Z,14.50
2022-08-16T07:01:09.866Z,17.02
2022-08-16T07:03:27.420Z,17.70
2022-08-16T07:05:57.550Z,16.83
2022-08-16T07:08:04.928Z,19.17
2022-08-16T07:10:09.624Z,15.80
2022-08-16T07:12:15.291Z,16.97
2022-08-16T07:14:24.703Z,15.00
2022-08-16T07:16:29.131Z,15.87
2022-08-16T07:18:35.280Z,16.30
2022-08-16T07:21:23.195Z,17.53
2022-08-16T07:23:37.381Z,15.30
2022-08-16T07:25:44.379Z,13.17
2022-08-16T07:27:47.853Z,11.73
2022-08-16T07:29:55.568Z,15.30
2022-08-16T07:32:01.044Z,13.27
2022-08-16T07:34:04.177Z,17.45
2022-08-16T07:36:22.012Z,13.40
2022-08-16T07:38:33.723Z,17.83
2022-08-16T07:41:00.351Z,19.30
2022-08-16T07:43:05.801Z,14.47
2022-08-16T07:45:11.777Z,16.83
2022-08-16T07:47:20.066Z,14.30
2022-08-16T07:49:32.410Z,14.30
2022-08-16T07:51:38.812Z,19.80
2022-08-16T07:53:44.645Z,17.20
2022-08-16T07:55:49.849Z,13.23
2022-08-16T07:58:03.309Z,16.80
2022-08-16T08:00:18.291Z,13.47
2022-08-16T08:02:27.287Z,12.30
2022-08-16T08:04:35.174Z,12.17
2022-08-16T08:06:37.878Z,12.97
2022-08-16T08:08:52.371Z,13.50
2022-08-16T08:10:56.863Z,14.03
2022-08-16T08:13:04.828Z,15.77
2022-08-16T08:15:11.940Z,12.90
2022-08-16T08:17:17.844Z,18.40
2022-08-16T08:19:21.387Z,18.20
2022-08-16T08:21:26.232Z,14.93
2022-08-16T08:23:31.330Z,13.73
2022-08-16T08:25:53.963Z,12.10
2022-08-16T08:28:00.483Z,12.30
2022-08-16T08:30:50.029Z,11.57
2022-08-16T08:32:58.572Z,11.83
2022-08-16T08:34:52.822Z,11.80
2022-08-16T08:36:56.909Z,15.03
2022-08-16T08:39:21.085Z,10.77
2022-08-16T08:41:30.455Z,14.80
2022-08-16T08:43:41.325Z,12.50
2022-08-16T08:45:57.642Z,12.23
2022-08-16T08:48:01.493Z,14.23
2022-08-16T08:50:08.980Z,13.40
2022-08-16T08:52:12.334Z,13.70
2022-08-16T08:54:36.586Z,19.33
2022-08-16T08:56:45.464Z,12.77
2022-08-16T08:59:04.675Z,11.47
2022-08-16T09:01:31.285Z,11.53
2022-08-16T09:03:37.922Z,12.00
2022-08-16T09:05:41.068Z,9.80
2022-08-16T09:08:01.580Z,10.95
2022-08-16T09:10:20.455Z,13.10
2022-08-16T09:12:30.200Z,14.13
2022-08-16T09:14:50.791Z,14.50
2022-08-16T09:17:03.135Z,12.83
2022-08-16T09:21:09.790Z,9.50
2022-08-16T09:23:13.801Z,9.00
2022-08-16T09:25:26.316Z,10.13
2022-08-16T09:27:56.578Z,9.10
2022-08-16T09:30:00.732Z,7.25
2022-08-16T09:32:25.602Z,7.70
2022-08-16T09:34:33.318Z,8.63
2022-08-16T09:36:36.259Z,8.40
2022-08-16T09:38:40.833Z,8.53
2022-08-16T09:40:49.614Z,8.30
2022-08-16T09:43:05.944Z,6.72
2022-08-16T09:45:17.134Z,8.00
2022-08-16T09:47:23.399Z,9.13
2022-08-16T09:49:26.445Z,8.73
2022-08-16T09:51:41.233Z,8.57
2022-08-16T09:53:44.004Z,9.23
2022-08-16T09:55:57.672Z,8.83
2022-08-16T09:58:01.382Z,9.90
2022-08-16T10:00:44.463Z,10.53
2022-08-16T10:02:34.699Z,8.60
2022-08-16T10:04:54.526Z,10.57
2022-08-16T10:09:10.716Z,10.40
2022-08-16T10:11:33.424Z,9.87
2022-08-16T10:13:52.766Z,8.67
2022-08-16T10:15:59.677Z,7.07
2022-08-16T10:19:00.986Z,7.30
2022-08-16T10:20:42.342Z,7.40
2022-08-16T10:22:47.226Z,8.33
2022-08-16T10:24:56.074Z,7.20
2022-08-16T10:27:26.438Z,10.90
2022-08-16T10:29:25.298Z,11.00
2022-08-16T10:31:53.575Z,8.40
2022-08-16T10:33:58.710Z,8.83
2022-08-16T10:36:06.318Z,7.97
2022-08-16T10:38:27.095Z,8.73
2022-08-16T10:40:32.266Z,9.17
2022-08-16T10:42:36.633Z,7.03
2022-08-16T10:44:39.262Z,8.80
2022-08-16T10:46:42.973Z,8.30
2022-08-16T10:48:47.718Z,8.60
2022-08-16T10:50:51.248Z,7.60
2022-08-16T10:52:58.701Z,8.47
2022-08-16T10:57:25.381Z,8.03
2022-08-16T10:59:45.149Z,7.83
2022-08-16T11:06:42.261Z,7.23
2022-08-16T11:11:27.286Z,7.10
2022-08-16T11:15:55.442Z,7.03
2022-08-16T11:20:41.502Z,5.00
2022-08-16T11:22:48.977Z,6.40
2022-08-16T11:25:11.878Z,5.70
2022-08-16T11:27:20.067Z,6.80
2022-08-16T11:29:26.806Z,7.57
2022-08-16T11:31:29.578Z,7.20
2022-08-16T11:38:46.897Z,7.10
2022-08-16T11:40:58.562Z,5.25
2022-08-16T11:43:04.053Z,5.67
2022-08-16T11:45:07.828Z,6.03
2022-08-16T11:47:10.500Z,5.43
2022-08-16T11:49:14.288Z,5.90
2022-08-16T11:51:17.587Z,5.30
2022-08-16T11:53:23.806Z,5.97
2022-08-16T11:55:26.852Z,5.50
2022-08-16T11:57:31.205Z,5.60
2022-08-16T11:59:35.844Z,6.23
2022-08-16T12:01:55.018Z,5.37
2022-08-16T12:04:01.870Z,5.67
2022-08-16T12:06:25.550Z,6.20
2022-08-16T12:08:33.398Z,6.50
2022-08-16T12:10:39.075Z,5.30
2022-08-16T12:12:43.817Z,5.60
2022-08-16T12:14:52.130Z,5.60
2022-08-16T12:17:05.029Z,5.97
2022-08-16T12:19:10.656Z,6.80
2022-08-16T12:21:18.406Z,5.20
2022-08-16T12:23:23.870Z,5.70
2022-08-16T12:25:30.725Z,6.00
2022-08-16T12:27:35.539Z,5.23
2022-08-16T12:29:42.779Z,5.47
2022-08-16T12:31:59.240Z,7.43
2022-08-16T12:34:10.735Z,6.53
2022-08-16T12:36:30.334Z,6.17
2022-08-16T12:38:40.811Z,6.43
2022-08-16T12:40:53.006Z,5.50
2022-08-16T12:43:01.115Z,5.97
2022-08-16T12:45:12.133Z,6.43
2022-08-16T12:47:33.351Z,5.83
2022-08-16T12:49:42.129Z,4.90
2022-08-16T12:51:58.677Z,5.30
2022-08-16T12:54:07.610Z,5.80
2022-08-16T12:56:12.730Z,4.97
2022-08-16T12:58:48.710Z,5.53
2022-08-16T13:00:40.207Z,5.10
2022-08-16T13:02:47.592Z,4.80
2022-08-16T13:04:50.508Z,5.23
2022-08-16T13:06:53.361Z,5.60
2022-08-16T13:09:02.345Z,5.50
2022-08-16T13:11:13.851Z,5.77
2022-08-16T13:13:25.004Z,5.67
2022-08-16T13:15:29.313Z,5.40
2022-08-16T13:17:33.003Z,4.83
2022-08-16T13:20:05.929Z,5.17
2022-08-16T13:21:59.869Z,5.57
2022-08-16T13:24:04.065Z,4.63
2022-08-16T13:26:08.333Z,4.73
2022-08-16T13:28:16.910Z,4.80
2022-08-16T13:30:35.561Z,5.10
2022-08-16T13:32:40.959Z,4.90
2022-08-16T13:34:43.667Z,4.93
2022-08-16T13:36:49.528Z,6.23
2022-08-16T13:38:56.323Z,6.60
2022-08-16T13:41:02.535Z,6.17
2022-08-16T13:43:05.165Z,7.23
2022-08-16T13:45:10.189Z,5.60
2022-08-16T13:47:19.758Z,4.93
2022-08-16T13:49:23.355Z,6.30
2022-08-16T13:51:30.818Z,7.20
2022-08-16T13:53:33.464Z,6.20
2022-08-16T13:55:36.054Z,5.70
2022-08-16T13:58:35.205Z,5.47
2022-08-16T14:00:05.505Z,5.30
2022-08-16T14:02:15.554Z,5.90
2022-08-16T14:04:18.969Z,6.07
2022-08-16T14:06:28.908Z,6.63
2022-08-16T14:08:31.503Z,5.37
2022-08-16T14:10:34.164Z,4.90
2022-08-16T14:12:37.711Z,4.83
2022-08-16T14:14:41.369Z,4.80
2022-08-16T14:16:45.170Z,5.80
2022-08-16T14:18:47.776Z,6.70
2022-08-16T14:20:51.897Z,6.23
2022-08-16T14:22:55.442Z,5.93
2022-08-16T14:25:00.129Z,5.70
2022-08-16T14:27:04.363Z,6.40
2022-08-16T14:29:07.218Z,6.10
2022-08-16T14:31:09.990Z,6.43
2022-08-16T14:33:14.199Z,6.77
2022-08-16T14:35:36.781Z,5.03
2022-08-16T14:37:52.560Z,5.20
2022-08-16T14:40:01.087Z,4.10
2022-08-16T14:42:13.606Z,4.67
2022-08-16T14:44:16.668Z,6.07
2022-08-16T14:46:20.455Z,4.97
2022-08-16T14:48:26.253Z,5.00
2022-08-16T14:50:29.386Z,4.33
2022-08-16T14:54:55.450Z,4.83
2022-08-16T14:56:58.582Z,5.73
2022-08-16T14:59:01.380Z,5.17
2022-08-16T15:01:09.983Z,4.10
2022-08-16T15:03:13.121Z,4.83
2022-08-16T15:05:17.087Z,4.60
2022-08-16T15:07:22.109Z,4.93
2022-08-16T15:09:25.683Z,5.43
2022-08-16T15:11:28.302Z,5.80
2022-08-16T15:13:36.037Z,6.30
2022-08-16T15:15:39.415Z,6.17
2022-08-16T15:17:53.722Z,5.40
2022-08-16T15:19:57.366Z,7.43
2022-08-16T15:22:02.134Z,6.03
2022-08-16T15:24:07.498Z,5.43
2022-08-16T15:26:34.663Z,7.53
2022-08-16T15:28:44.570Z,8.45
2022-08-16T15:30:59.446Z,5.83
2022-08-16T15:33:15.417Z,5.90
2022-08-16T15:35:18.488Z,5.90
2022-08-16T15:37:21.132Z,6.37
2022-08-16T15:39:37.137Z,5.43
2022-08-16T15:41:43.507Z,5.70
2022-08-16T15:43:46.431Z,5.00
2022-08-16T15:46:07.826Z,5.17
2022-08-16T15:48:13.681Z,5.67
2022-08-16T15:50:19.851Z,4.40
2022-08-16T15:52:30.729Z,4.30
2022-08-16T15:54:33.579Z,3.80
2022-08-16T15:56:36.299Z,5.87
2022-08-16T15:58:39.100Z,4.57
2022-08-16T16:00:43.533Z,3.80
2022-08-16T16:02:47.086Z,4.10
2022-08-16T16:04:52.265Z,5.30
2022-08-16T16:06:57.297Z,4.73
2022-08-16T16:09:02.402Z,4.20
2022-08-16T16:11:07.199Z,3.93
2022-08-16T16:13:11.885Z,4.00
2022-08-16T16:15:18.839Z,3.50
2022-08-16T16:17:21.469Z,4.20
2022-08-16T16:19:24.007Z,3.60
2022-08-16T16:21:30.062Z,5.70
2022-08-16T16:23:44.820Z,7.33
2022-08-16T16:26:03.511Z,5.20
2022-08-16T16:29:05.313Z,3.97
2022-08-16T16:30:45.186Z,3.53
2022-08-16T16:32:51.185Z,4.40
2022-08-16T16:34:59.223Z,4.10
2022-08-16T16:37:04.112Z,3.90
2022-08-16T16:39:11.281Z,3.40
2022-08-16T16:41:22.739Z,3.77
2022-08-16T16:43:31.351Z,4.27
2022-08-16T16:45:40.006Z,3.10
2022-08-16T16:47:42.793Z,3.57
2022-08-16T16:49:50.534Z,3.17
2022-08-16T16:52:06.652Z,2.95
2022-08-16T16:54:13.237Z,3.47
2022-08-16T16:56:27.498Z,4.33
2022-08-16T16:58:54.202Z,3.50
2022-08-16T17:00:58.421Z,3.70
2022-08-16T17:03:02.927Z,3.63
2022-08-16T17:05:08.509Z,4.00
2022-08-16T17:07:14.660Z,4.03
2022-08-16T17:09:18.867Z,3.27
2022-08-16T17:11:25.749Z,3.30
2022-08-16T17:13:33.024Z,3.40
2022-08-16T17:15:40.967Z,3.47
2022-08-16T17:17:59.962Z,3.87
2022-08-16T17:20:12.785Z,2.83
2022-08-16T17:22:20.674Z,2.33
2022-08-16T17:26:49.182Z,2.30
2022-08-16T17:29:11.192Z,2.40
2022-08-16T17:31:16.364Z,2.00
2022-08-16T17:33:21.857Z,3.00
2022-08-16T17:35:38.252Z,2.40
2022-08-16T17:37:51.001Z,1.83
2022-08-16T17:39:28.503Z,2.22
2022-08-16T17:40:00.319Z,2.27
2022-08-16T17:42:15.947Z,2.10
2022-08-16T17:44:19.885Z,2.67
2022-08-16T17:46:51.800Z,1.60
2022-08-16T17:48:45.330Z,2.07
2022-08-16T17:50:48.234Z,2.35
2022-08-16T17:52:58.461Z,2.87
2022-08-16T17:55:12.419Z,4.30
2022-08-16T17:57:16.962Z,4.37
2022-08-16T17:59:20.809Z,4.20
2022-08-16T18:01:27.086Z,3.40
2022-08-16T18:04:02.842Z,3.27
2022-08-16T18:06:11.048Z,3.10
2022-08-16T18:08:16.295Z,2.80
2022-08-16T18:10:32.658Z,2.80
2022-08-16T18:12:54.978Z,2.40
2022-08-16T18:15:00.865Z,2.70
2022-08-16T18:17:08.784Z,2.30
2022-08-16T18:19:14.689Z,2.10
2022-08-16T18:21:36.626Z,2.87
2022-08-16T18:23:39.847Z,2.27
2022-08-16T18:25:53.053Z,2.47
2022-08-16T18:27:57.639Z,2.50
2022-08-16T18:30:05.673Z,2.70
2022-08-16T18:32:09.203Z,2.23
2022-08-16T18:34:11.934Z,2.50
2022-08-16T18:36:21.182Z,2.40
2022-08-16T18:38:24.229Z,2.10
2022-08-16T18:40:27.147Z,1.93
2022-08-16T18:42:29.853Z,2.30
2022-08-16T18:44:38.082Z,3.10
2022-08-16T18:46:43.344Z,3.40
2022-08-16T18:48:45.949Z,3.10
2022-08-16T18:50:59.713Z,2.77
2022-08-16T18:53:16.457Z,3.30
2022-08-16T18:55:20.730Z,3.37
2022-08-16T18:57:26.061Z,3.47
2022-08-16T18:59:31.176Z,3.47
2022-08-16T19:01:34.827Z,3.10
2022-08-16T19:03:40.217Z,2.50
2022-08-16T19:06:05.565Z,3.17
2022-08-16T19:08:16.991Z,3.00
2022-08-16T19:10:21.128Z,3.00
2022-08-16T19:12:37.948Z,3.23
2022-08-16T19:14:58.301Z,3.30
2022-08-16T19:17:01.797Z,3.47
2022-08-16T19:19:08.607Z,3.30
2022-08-16T19:21:14.451Z,3.22
2022-08-16T19:23:22.970Z,3.57
2022-08-16T19:25:47.063Z,3.27
2022-08-16T19:27:58.160Z,3.60
2022-08-16T19:30:05.148Z,3.50
2022-08-16T19:32:27.695Z,2.83
2022-08-16T19:34:30.922Z,3.30
2022-08-16T19:36:38.029Z,3.43
2022-08-16T19:38:47.344Z,3.20
2022-08-16T19:40:51.820Z,3.83
2022-08-16T19:42:56.187Z,3.30
2022-08-16T19:45:16.953Z,2.97
2022-08-16T19:47:20.587Z,3.23
2022-08-16T19:49:24.651Z,3.00
2022-08-16T19:51:31.988Z,3.30
2022-08-16T19:53:34.848Z,3.60
2022-08-16T19:55:37.686Z,2.73
2022-08-16T19:57:43.983Z,3.40
2022-08-16T19:59:48.346Z,4.23
2022-08-16T20:01:52.842Z,4.70
2022-08-16T20:04:00.566Z,4.80
2022-08-16T20:06:04.212Z,4.93
2022-08-16T20:08:08.357Z,4.20
2022-08-16T20:10:14.399Z,5.00
2022-08-16T20:12:23.699Z,4.70
2022-08-16T20:14:27.315Z,4.80
2022-08-16T20:16:31.999Z,5.00
2022-08-16T20:18:41.148Z,5.57
2022-08-16T20:20:44.725Z,4.93
2022-08-16T20:22:54.265Z,4.93
2022-08-16T20:25:00.934Z,5.03
2022-08-16T20:27:07.368Z,4.80
2022-08-16T20:29:10.288Z,4.90
2022-08-16T20:31:14.903Z,4.53
2022-08-16T20:33:18.853Z,4.27
2022-08-16T20:35:25.414Z,5.17
2022-08-16T20:37:28.299Z,3.43
2022-08-16T20:39:32.727Z,4.60
2022-08-16T20:41:35.452Z,5.33
2022-08-16T20:43:51.083Z,5.00
2022-08-16T20:46:06.374Z,5.17
2022-08-16T20:48:11.289Z,5.10
2022-08-16T20:50:14.139Z,4.47
2022-08-16T20:52:19.808Z,4.20
2022-08-16T20:54:22.677Z,4.50
2022-08-16T20:56:25.255Z,4.10
2022-08-16T20:58:30.333Z,4.03
2022-08-16T21:00:36.035Z,3.93
2022-08-16T21:02:40.712Z,3.83
2022-08-16T21:04:45.477Z,4.23
2022-08-16T21:06:54.113Z,3.50
2022-08-16T21:09:03.615Z,3.77
2022-08-16T21:11:08.216Z,3.90
2022-08-16T21:13:12.631Z,4.93
2022-08-16T21:15:17.412Z,4.73
2022-08-16T21:17:20.141Z,4.77
2022-08-16T21:19:23.143Z,5.03
2022-08-16T21:21:31.831Z,5.33
2022-08-16T21:23:36.261Z,5.40
2022-08-16T21:25:58.405Z,5.90
2022-08-16T21:28:40.334Z,6.05
2022-08-16T21:30:33.962Z,5.60
2022-08-16T21:32:37.404Z,5.57
2022-08-16T21:34:45.905Z,5.80
2022-08-16T21:36:50.107Z,6.47
2022-08-16T21:38:53.150Z,5.77
2022-08-16T21:40:57.843Z,6.25
2022-08-16T21:43:11.994Z,7.43
2022-08-16T21:45:15.029Z,7.23
2022-08-16T21:47:17.892Z,7.00
2022-08-16T21:49:20.531Z,7.90
2022-08-16T21:51:23.145Z,7.90
2022-08-16T21:53:26.753Z,7.37
2022-08-16T21:55:29.323Z,6.60
2022-08-16T21:57:35.424Z,6.38
2022-08-16T21:59:39.027Z,5.97
2022-08-16T22:01:43.508Z,6.22
2022-08-16T22:03:46.204Z,5.20
2022-08-16T22:06:12.027Z,6.20
2022-08-16T22:08:14.021Z,5.32
2022-08-16T22:11:06.266Z,4.80
2022-08-16T22:12:49.014Z,8.23
2022-08-16T22:14:51.987Z,7.87
2022-08-16T22:16:55.876Z,8.23
2022-08-16T22:19:00.910Z,6.72
2022-08-16T22:21:03.544Z,7.00
2022-08-16T22:23:18.246Z,5.60
2022-08-16T22:25:23.198Z,6.90
2022-08-16T22:27:25.782Z,6.67
2022-08-16T22:29:28.388Z,6.37
2022-08-16T22:31:31.238Z,6.40
2022-08-16T22:33:33.814Z,5.97
2022-08-16T22:35:42.888Z,5.53
2022-08-16T22:38:46.181Z,5.37
2022-08-16T22:40:09.313Z,4.93
2022-08-16T22:42:12.510Z,4.87
2022-08-16T22:44:15.323Z,4.75
2022-08-16T22:46:19.596Z,5.47
2022-08-16T22:48:22.621Z,5.87
2022-08-16T22:50:25.518Z,6.87
2022-08-16T22:52:44.296Z,7.93
2022-08-16T22:54:50.650Z,8.20
2022-08-16T22:56:53.250Z,7.17
2022-08-16T22:58:56.356Z,7.30
2022-08-16T23:00:59.028Z,8.13
2022-08-16T23:03:13.961Z,6.77
2022-08-16T23:05:17.822Z,8.10
2022-08-16T23:07:20.498Z,6.00
2022-08-16T23:09:23.642Z,6.93
2022-08-16T23:11:26.569Z,7.10
2022-08-16T23:13:29.239Z,8.87
2022-08-16T23:15:40.033Z,10.10
2022-08-16T23:17:43.837Z,9.17
2022-08-16T23:19:47.295Z,7.77
2022-08-16T23:21:49.906Z,7.07
2022-08-16T23:23:52.542Z,7.90
2022-08-16T23:25:58.740Z,7.33
2022-08-16T23:28:01.547Z,7.67
2022-08-16T23:30:04.660Z,8.80
2022-08-16T23:32:12.069Z,8.75
2022-08-16T23:34:14.668Z,9.20
2022-08-16T23:36:17.297Z,8.80
2022-08-16T23:38:38.242Z,8.03
2022-08-16T23:40:42.500Z,7.47
2022-08-16T23:43:19.148Z,7.33
2022-08-16T23:45:26.883Z,7.10
2022-08-16T23:47:29.503Z,6.97
2022-08-16T23:49:59.360Z,7.33
2022-08-16T23:51:57.034Z,8.70
2022-08-16T23:54:00.643Z,9.52
2022-08-16T23:56:11.296Z,9.20
2022-08-16T23:58:16.893Z,8.90
